AirNav   Air Wisconsin pilot careers
 
 1729 users online  

58AR Price Coffee Airfield
Bentonville, Arkansas, USA


FAA INFORMATION EFFECTIVE 01 FEBRUARY 2018

Location

FAA Identifier: 58AR
Lat/Long: 36-24-21.0000N / 094-10-31.0000W
36-24.350000N / 094-10.516667W
36.4058333 / -94.1752778
(estimated)
Elevation: 1067 ft. / 325 m (estimated)
From city: 2 miles NE of BENTONVILLE, AR
Time zone: UTC +0 (year round; does not observe DST)
Zip code: 72712

Airport Operations

Airport use: Private use. Permission required prior to landing
Activation date: 09/2017
Control tower: no
ARTCC: MEMPHIS CENTER
FSS: JONESBORO FLIGHT SERVICE STATION
Attendance: UNATTND
Segmented circle: no

Airport Communications

WX AWOS-3PT at ROG (4 nm SE): 134.375 (479-631-9196)
WX AWOS-3PT at VBT (4 nm SW): 134.975 (479-273-9198)
WX ASOS at XNA (10 nm SW): 119.425 (479-203-0109)
WX AWOS-3 at ASG (14 nm S): 124.675 (479-750-2967)
WX AWOS-3PT at SLG (20 nm SW): 118.375 (479-524-9893)

Nearby radio navigation aids

VOR radial/distance  VOR name  Freq  Var
RZCr341/9.9RAZORBACK VORTAC116.4004E
DAKr356/21.8DRAKE VOR/DME115.2507E
EOSr147/29.0NEOSHO VOR/DME117.3007E

 
NDB name  Hdg/Dist  Freq  Var  ID
ROGRS233/6.126304ERO .-. ---
SILOAM SPRINGS045/20.028404ESLG ... .-.. --.

Airport Services

Runway Information

Runway 11/29

Dimensions: 2300 x 60 ft. / 701 x 18 m
Surface: turf
RUNWAY 11  RUNWAY 29
Traffic pattern: leftright

Airport Ownership and Management from official FAA records

Ownership: Privately-owned
Owner: PRICE COFFEE, LLC
PO BOX 1860
BENTONVILLE, AR 72712
Phone 479-464-1526
Manager: CHAD COX
3404 CARDINAL LN
BENTONVILLE, AR 72712
Phone 501-732-0658

Instrument Procedures

There are no published instrument procedures at 58AR.

Some nearby airports with instrument procedures:

KROG - Rogers Executive Airport - Carter Field (4 nm SE)
KVBT - Bentonville Municipal Airport/Louise M Thaden Field (4 nm SW)
KXNA - Northwest Arkansas Regional Airport (10 nm SW)
5M5 - Crystal Lake Airport (14 nm W)
KASG - Springdale Municipal Airport (14 nm S)
KSLG - Smith Field Airport (20 nm SW)
 
Loc | Ops | Rwys | IFR | FBO | Links
Com | Nav | Svcs | Stats | Notes

AirNav Hotels Sweepstakes
 
Aerial photo
No photo
 
Airport distance calculator
Flying to Price Coffee Airfield? Find the distance to fly.

From to 58AR

Sunrise and sunset
Times for 20-Feb-2018
 Zulu (UTC)
Morning civil twilight12:34
Sunrise13:00
Sunset00:01
Evening civil twilight00:27

Current date and time
Zulu (UTC)  20-Feb-2018 17:53:13
 
METAR
KVBT 
4nm SW 
201656Z AUTO 20017G31KT 10SM BKN025 OVC031 21/16 A2994 RMK AO2 PK WND 21031/1651 SLP131 T02060156
KROG 
5nm SE 
201658Z 20022G38KT 10SM OVC026 21/16 A2992 RMK AO2 PK WND 21038/1655 SLP122 T02110156
KXNA 
10nm SW 
201740Z 20014G21KT 5SM -RA BR FEW024 BKN055 OVC090 18/17 A2994 RMK AO2 PK WND 20027/1712 RAB11 P0004 T01830167
KASG 
15nm S 
201728Z 21021G32KT 3SM -RA BR BKN026 BKN033 OVC110 20/17 A2997 RMK RAB26
KSLG 
19nm SW 
201656Z AUTO 21017G22KT 10SM BKN025 OVC032 20/16 A2993 RMK AO2 PK WND 20027/1559 SLP126 T02000161
TAF
KROG 
5nm SE 
201126Z 2012/2112 18020G29KT P6SM VCSH OVC025 TEMPO 2013/2017 3SM TSRA BR OVC010CB FM201700 19018G28KT 4SM -TSRA BR OVC015CB FM202000 35015G24KT 4SM -RA BR OVC010 FM210400 35017G26KT P6SM VCSH OVC015
KXNA 
10nm SW 
201357Z 2014/2112 18016G23KT P6SM VCSH OVC025 TEMPO 2014/2017 1SM TSRA BR OVC010CB FM201700 19018G28KT 4SM -TSRA BR OVC015CB FM202000 35015G24KT 4SM -RA BR OVC010 FM210600 35017G26KT P6SM VCSH OVC015
NOTAMs
Click for the latest NOTAMs
NOTAMs are issued by the DoD/FAA and will open in a separate window not controlled by AirNav.

 

 
 

Would you like to see your business listed on this page?

 If your business provides an interesting product or service to pilots, flight crews, aircraft, or users of the Price Coffee Airfield, you should consider listing it here.  To start the listing process, click on the button below
 
Add a business
 

Other Pages about Price Coffee Airfield

Update a link
 
Copyright © AirNav, LLC. All rights reserved. Privacy Policy  Contact